sensor_id;sensor_type;location;lat;lon;timestamp;P1;durP1;ratioP1;P2;durP2;ratioP2
66874;SDS011;53784;52.630;4.896;2023-02-28T00:02:24;8.88;;;4.15;;
66874;SDS011;53784;52.630;4.896;2023-02-28T00:04:49;7.68;;;3.20;;
66874;SDS011;53784;52.630;4.896;2023-02-28T00:07:18;7.80;;;3.00;;
66874;SDS011;53784;52.630;4.896;2023-02-28T00:09:44;7.95;;;3.13;;
66874;SDS011;53784;52.630;4.896;2023-02-28T00:12:10;8.23;;;3.05;;
66874;SDS011;53784;52.630;4.896;2023-02-28T00:14:35;4.60;;;2.13;;
66874;SDS011;53784;52.630;4.896;2023-02-28T00:17:00;7.70;;;2.25;;
66874;SDS011;53784;52.630;4.896;2023-02-28T00:19:25;6.93;;;2.13;;
66874;SDS011;53784;52.630;4.896;2023-02-28T00:21:51;5.38;;;2.20;;
66874;SDS011;53784;52.630;4.896;2023-02-28T00:24:17;7.55;;;2.58;;
66874;SDS011;53784;52.630;4.896;2023-02-28T00:26:42;7.20;;;3.15;;
66874;SDS011;53784;52.630;4.896;2023-02-28T00:29:07;9.40;;;3.40;;
66874;SDS011;53784;52.630;4.896;2023-02-28T00:31:33;5.38;;;2.35;;
66874;SDS011;53784;52.630;4.896;2023-02-28T00:33:58;6.67;;;2.10;;
66874;SDS011;53784;52.630;4.896;2023-02-28T00:36:23;6.45;;;2.20;;
66874;SDS011;53784;52.630;4.896;2023-02-28T00:38:48;6.95;;;2.08;;
66874;SDS011;53784;52.630;4.896;2023-02-28T00:41:14;5.72;;;2.10;;
66874;SDS011;53784;52.630;4.896;2023-02-28T00:43:39;5.47;;;1.83;;
66874;SDS011;53784;52.630;4.896;2023-02-28T00:46:05;7.18;;;2.05;;
66874;SDS011;53784;52.630;4.896;2023-02-28T00:48:30;6.80;;;2.10;;
66874;SDS011;53784;52.630;4.896;2023-02-28T00:50:55;5.87;;;2.20;;
66874;SDS011;53784;52.630;4.896;2023-02-28T00:53:21;6.33;;;2.17;;
66874;SDS011;53784;52.630;4.896;2023-02-28T00:55:46;6.53;;;2.00;;
66874;SDS011;53784;52.630;4.896;2023-02-28T00:58:12;7.00;;;2.10;;
66874;SDS011;53784;52.630;4.896;2023-02-28T01:00:37;6.43;;;2.40;;
66874;SDS011;53784;52.630;4.896;2023-02-28T01:03:02;7.95;;;2.35;;
66874;SDS011;53784;52.630;4.896;2023-02-28T01:05:27;7.50;;;2.27;;
66874;SDS011;53784;52.630;4.896;2023-02-28T01:07:52;7.45;;;2.88;;
66874;SDS011;53784;52.630;4.896;2023-02-28T01:10:18;7.60;;;2.90;;
66874;SDS011;53784;52.630;4.896;2023-02-28T01:12:43;7.55;;;2.72;;
66874;SDS011;53784;52.630;4.896;2023-02-28T01:15:09;6.55;;;2.72;;
66874;SDS011;53784;52.630;4.896;2023-02-28T01:17:35;5.78;;;2.60;;
66874;SDS011;53784;52.630;4.896;2023-02-28T01:20:01;6.95;;;2.63;;
66874;SDS011;53784;52.630;4.896;2023-02-28T01:22:26;5.28;;;2.30;;
66874;SDS011;53784;52.630;4.896;2023-02-28T01:24:52;9.33;;;2.80;;
66874;SDS011;53784;52.630;4.896;2023-02-28T01:27:17;6.28;;;2.38;;
66874;SDS011;53784;52.630;4.896;2023-02-28T01:29:42;5.57;;;2.42;;
66874;SDS011;53784;52.630;4.896;2023-02-28T01:32:07;6.65;;;2.60;;
66874;SDS011;53784;52.630;4.896;2023-02-28T01:34:33;7.87;;;2.37;;
66874;SDS011;53784;52.630;4.896;2023-02-28T01:36:58;6.40;;;2.20;;
66874;SDS011;53784;52.630;4.896;2023-02-28T01:39:23;6.97;;;2.25;;
66874;SDS011;53784;52.630;4.896;2023-02-28T01:41:49;9.38;;;2.33;;
66874;SDS011;53784;52.630;4.896;2023-02-28T01:46:58;6.43;;;2.15;;
66874;SDS011;53784;52.630;4.896;2023-02-28T01:49:23;7.38;;;2.30;;
66874;SDS011;53784;52.630;4.896;2023-02-28T01:51:49;5.95;;;2.25;;
66874;SDS011;53784;52.630;4.896;2023-02-28T01:54:21;5.78;;;2.20;;
66874;SDS011;53784;52.630;4.896;2023-02-28T01:56:48;6.03;;;2.10;;
66874;SDS011;53784;52.630;4.896;2023-02-28T01:59:22;6.72;;;2.35;;
66874;SDS011;53784;52.630;4.896;2023-02-28T02:01:49;6.03;;;2.35;;
66874;SDS011;53784;52.630;4.896;2023-02-28T02:04:14;6.97;;;2.40;;
66874;SDS011;53784;52.630;4.896;2023-02-28T02:06:43;8.45;;;2.45;;
66874;SDS011;53784;52.630;4.896;2023-02-28T02:09:09;7.88;;;2.63;;
66874;SDS011;53784;52.630;4.896;2023-02-28T02:11:34;11.02;;;3.00;;
66874;SDS011;53784;52.630;4.896;2023-02-28T02:19:30;6.85;;;2.38;;
66874;SDS011;53784;52.630;4.896;2023-02-28T02:34:54;8.30;;;2.20;;
66874;SDS011;53784;52.630;4.896;2023-02-28T02:40:09;6.78;;;2.10;;
66874;SDS011;53784;52.630;4.896;2023-02-28T02:42:39;6.07;;;2.22;;
66874;SDS011;53784;52.630;4.896;2023-02-28T02:47:49;5.38;;;2.20;;
66874;SDS011;53784;52.630;4.896;2023-02-28T02:50:17;6.57;;;2.28;;
66874;SDS011;53784;52.630;4.896;2023-02-28T02:52:45;7.78;;;1.90;;
66874;SDS011;53784;52.630;4.896;2023-02-28T02:55:12;8.57;;;2.47;;
66874;SDS011;53784;52.630;4.896;2023-02-28T02:57:48;6.55;;;2.25;;
66874;SDS011;53784;52.630;4.896;2023-02-28T03:00:15;5.03;;;2.38;;
66874;SDS011;53784;52.630;4.896;2023-02-28T03:02:41;7.97;;;2.70;;
66874;SDS011;53784;52.630;4.896;2023-02-28T03:05:29;7.15;;;2.30;;
66874;SDS011;53784;52.630;4.896;2023-02-28T03:07:53;9.70;;;2.30;;
66874;SDS011;53784;52.630;4.896;2023-02-28T03:10:38;6.22;;;2.53;;
66874;SDS011;53784;52.630;4.896;2023-02-28T03:15:52;8.80;;;2.60;;
66874;SDS011;53784;52.630;4.896;2023-02-28T03:21:04;6.47;;;2.60;;
66874;SDS011;53784;52.630;4.896;2023-02-28T03:23:38;8.27;;;2.65;;
66874;SDS011;53784;52.630;4.896;2023-02-28T03:26:06;5.20;;;2.35;;
66874;SDS011;53784;52.630;4.896;2023-02-28T03:28:41;10.30;;;2.72;;
66874;SDS011;53784;52.630;4.896;2023-02-28T03:31:17;6.95;;;2.58;;
66874;SDS011;53784;52.630;4.896;2023-02-28T03:33:44;7.88;;;2.75;;
66874;SDS011;53784;52.630;4.896;2023-02-28T03:36:19;7.35;;;2.30;;
66874;SDS011;53784;52.630;4.896;2023-02-28T03:38:53;11.63;;;2.47;;
66874;SDS011;53784;52.630;4.896;2023-02-28T03:41:21;10.93;;;2.60;;
66874;SDS011;53784;52.630;4.896;2023-02-28T03:43:50;7.13;;;2.30;;
66874;SDS011;53784;52.630;4.896;2023-02-28T03:46:18;8.95;;;2.70;;
66874;SDS011;53784;52.630;4.896;2023-02-28T03:48:51;8.43;;;2.70;;
66874;SDS011;53784;52.630;4.896;2023-02-28T03:51:17;7.25;;;2.40;;
66874;SDS011;53784;52.630;4.896;2023-02-28T03:53:45;9.45;;;2.63;;
66874;SDS011;53784;52.630;4.896;2023-02-28T03:56:14;5.80;;;2.30;;
66874;SDS011;53784;52.630;4.896;2023-02-28T03:58:42;6.25;;;2.38;;
66874;SDS011;53784;52.630;4.896;2023-02-28T04:01:16;9.38;;;2.65;;
66874;SDS011;53784;52.630;4.896;2023-02-28T04:03:44;7.70;;;2.65;;
66874;SDS011;53784;52.630;4.896;2023-02-28T04:06:13;6.57;;;2.60;;
66874;SDS011;53784;52.630;4.896;2023-02-28T04:08:40;8.13;;;3.40;;
66874;SDS011;53784;52.630;4.896;2023-02-28T04:11:49;6.77;;;3.17;;
66874;SDS011;53784;52.630;4.896;2023-02-28T04:13:53;7.72;;;3.10;;
66874;SDS011;53784;52.630;4.896;2023-02-28T04:16:18;6.97;;;2.87;;
66874;SDS011;53784;52.630;4.896;2023-02-28T04:18:43;6.40;;;2.80;;
66874;SDS011;53784;52.630;4.896;2023-02-28T04:21:09;8.95;;;2.88;;
66874;SDS011;53784;52.630;4.896;2023-02-28T04:23:35;7.10;;;2.50;;
66874;SDS011;53784;52.630;4.896;2023-02-28T04:26:00;10.88;;;3.92;;
66874;SDS011;53784;52.630;4.896;2023-02-28T04:28:25;10.52;;;3.15;;
66874;SDS011;53784;52.630;4.896;2023-02-28T04:31:08;8.13;;;2.95;;
66874;SDS011;53784;52.630;4.896;2023-02-28T04:33:34;9.07;;;2.80;;
66874;SDS011;53784;52.630;4.896;2023-02-28T04:36:00;7.43;;;2.57;;
66874;SDS011;53784;52.630;4.896;2023-02-28T04:38:25;9.93;;;3.00;;
66874;SDS011;53784;52.630;4.896;2023-02-28T04:40:50;9.45;;;2.90;;
66874;SDS011;53784;52.630;4.896;2023-02-28T04:43:16;5.05;;;2.50;;
66874;SDS011;53784;52.630;4.896;2023-02-28T04:45:41;6.43;;;2.83;;
66874;SDS011;53784;52.630;4.896;2023-02-28T04:48:06;7.53;;;2.80;;
66874;SDS011;53784;52.630;4.896;2023-02-28T04:50:31;10.25;;;2.60;;
66874;SDS011;53784;52.630;4.896;2023-02-28T04:52:56;9.90;;;2.57;;
66874;SDS011;53784;52.630;4.896;2023-02-28T04:55:21;8.33;;;2.87;;
66874;SDS011;53784;52.630;4.896;2023-02-28T04:57:47;9.07;;;3.53;;
66874;SDS011;53784;52.630;4.896;2023-02-28T05:00:12;12.05;;;3.65;;
66874;SDS011;53784;52.630;4.896;2023-02-28T05:02:40;8.02;;;3.30;;
66874;SDS011;53784;52.630;4.896;2023-02-28T05:05:05;7.63;;;2.70;;
66874;SDS011;53784;52.630;4.896;2023-02-28T05:07:30;8.02;;;3.00;;
66874;SDS011;53784;52.630;4.896;2023-02-28T05:09:56;6.28;;;2.80;;
66874;SDS011;53784;52.630;4.896;2023-02-28T05:12:21;6.88;;;2.90;;
66874;SDS011;53784;52.630;4.896;2023-02-28T05:14:46;7.17;;;2.90;;
66874;SDS011;53784;52.630;4.896;2023-02-28T05:17:11;18.05;;;3.38;;
66874;SDS011;53784;52.630;4.896;2023-02-28T05:19:36;7.90;;;2.88;;
66874;SDS011;53784;52.630;4.896;2023-02-28T05:22:02;9.07;;;3.45;;
66874;SDS011;53784;52.630;4.896;2023-02-28T05:24:27;12.85;;;3.47;;
66874;SDS011;53784;52.630;4.896;2023-02-28T05:26:53;8.68;;;3.40;;
66874;SDS011;53784;52.630;4.896;2023-02-28T05:29:18;10.98;;;3.47;;
66874;SDS011;53784;52.630;4.896;2023-02-28T05:31:44;8.77;;;3.20;;
66874;SDS011;53784;52.630;4.896;2023-02-28T05:34:10;7.45;;;3.28;;
66874;SDS011;53784;52.630;4.896;2023-02-28T05:36:37;14.00;;;3.67;;
66874;SDS011;53784;52.630;4.896;2023-02-28T05:39:03;9.77;;;3.45;;
66874;SDS011;53784;52.630;4.896;2023-02-28T05:41:28;6.30;;;3.17;;
66874;SDS011;53784;52.630;4.896;2023-02-28T05:43:53;10.98;;;3.17;;
66874;SDS011;53784;52.630;4.896;2023-02-28T05:46:18;9.20;;;3.17;;
66874;SDS011;53784;52.630;4.896;2023-02-28T05:48:45;7.55;;;3.30;;
66874;SDS011;53784;52.630;4.896;2023-02-28T05:51:11;10.25;;;3.50;;
66874;SDS011;53784;52.630;4.896;2023-02-28T05:53:36;9.25;;;3.90;;
66874;SDS011;53784;52.630;4.896;2023-02-28T05:56:01;8.10;;;3.72;;
66874;SDS011;53784;52.630;4.896;2023-02-28T05:58:27;8.38;;;4.10;;
66874;SDS011;53784;52.630;4.896;2023-02-28T06:00:58;10.15;;;4.20;;
66874;SDS011;53784;52.630;4.896;2023-02-28T06:03:24;9.02;;;3.95;;
66874;SDS011;53784;52.630;4.896;2023-02-28T06:05:49;10.23;;;4.47;;
66874;SDS011;53784;52.630;4.896;2023-02-28T06:08:15;10.50;;;4.50;;
66874;SDS011;53784;52.630;4.896;2023-02-28T06:10:40;9.63;;;4.90;;
66874;SDS011;53784;52.630;4.896;2023-02-28T06:13:06;10.50;;;5.30;;
66874;SDS011;53784;52.630;4.896;2023-02-28T06:15:31;8.82;;;4.38;;
66874;SDS011;53784;52.630;4.896;2023-02-28T06:17:57;12.35;;;5.07;;
66874;SDS011;53784;52.630;4.896;2023-02-28T06:20:23;10.65;;;4.53;;
66874;SDS011;53784;52.630;4.896;2023-02-28T06:22:48;9.18;;;4.63;;
66874;SDS011;53784;52.630;4.896;2023-02-28T06:25:15;9.65;;;4.80;;
66874;SDS011;53784;52.630;4.896;2023-02-28T06:27:41;13.43;;;5.32;;
66874;SDS011;53784;52.630;4.896;2023-02-28T06:30:06;9.73;;;4.80;;
66874;SDS011;53784;52.630;4.896;2023-02-28T06:32:32;12.02;;;5.25;;
66874;SDS011;53784;52.630;4.896;2023-02-28T06:34:57;9.98;;;5.25;;
66874;SDS011;53784;52.630;4.896;2023-02-28T06:37:23;10.93;;;5.03;;
66874;SDS011;53784;52.630;4.896;2023-02-28T06:39:51;9.88;;;5.50;;
66874;SDS011;53784;52.630;4.896;2023-02-28T06:42:16;10.80;;;4.88;;
66874;SDS011;53784;52.630;4.896;2023-02-28T06:44:41;11.75;;;5.30;;
66874;SDS011;53784;52.630;4.896;2023-02-28T06:47:07;13.10;;;5.65;;
66874;SDS011;53784;52.630;4.896;2023-02-28T06:49:33;14.80;;;5.70;;
66874;SDS011;53784;52.630;4.896;2023-02-28T06:51:59;11.68;;;5.53;;
66874;SDS011;53784;52.630;4.896;2023-02-28T06:54:24;13.05;;;5.80;;
66874;SDS011;53784;52.630;4.896;2023-02-28T06:56:49;11.17;;;5.43;;
66874;SDS011;53784;52.630;4.896;2023-02-28T06:59:14;12.55;;;5.65;;
66874;SDS011;53784;52.630;4.896;2023-02-28T07:01:40;11.82;;;5.50;;
66874;SDS011;53784;52.630;4.896;2023-02-28T07:04:05;12.82;;;5.80;;
66874;SDS011;53784;52.630;4.896;2023-02-28T07:06:31;15.88;;;6.03;;
66874;SDS011;53784;52.630;4.896;2023-02-28T07:08:56;10.98;;;5.55;;
66874;SDS011;53784;52.630;4.896;2023-02-28T07:11:22;12.57;;;5.90;;
66874;SDS011;53784;52.630;4.896;2023-02-28T07:13:48;12.15;;;5.55;;
66874;SDS011;53784;52.630;4.896;2023-02-28T07:16:14;19.02;;;9.02;;
66874;SDS011;53784;52.630;4.896;2023-02-28T07:18:39;25.02;;;11.40;;
66874;SDS011;53784;52.630;4.896;2023-02-28T07:21:05;15.23;;;7.70;;
66874;SDS011;53784;52.630;4.896;2023-02-28T07:23:31;14.88;;;6.88;;
66874;SDS011;53784;52.630;4.896;2023-02-28T07:25:56;15.90;;;7.63;;
66874;SDS011;53784;52.630;4.896;2023-02-28T07:28:21;15.75;;;7.40;;
66874;SDS011;53784;52.630;4.896;2023-02-28T07:30:47;13.13;;;6.43;;
66874;SDS011;53784;52.630;4.896;2023-02-28T07:33:13;9.07;;;4.35;;
66874;SDS011;53784;52.630;4.896;2023-02-28T07:35:38;13.90;;;7.97;;
66874;SDS011;53784;52.630;4.896;2023-02-28T07:38:03;12.80;;;6.45;;
66874;SDS011;53784;52.630;4.896;2023-02-28T07:40:28;14.95;;;7.47;;
66874;SDS011;53784;52.630;4.896;2023-02-28T07:42:53;14.07;;;6.85;;
66874;SDS011;53784;52.630;4.896;2023-02-28T07:45:19;13.33;;;5.97;;
66874;SDS011;53784;52.630;4.896;2023-02-28T07:47:44;15.75;;;7.15;;
66874;SDS011;53784;52.630;4.896;2023-02-28T07:50:10;11.45;;;6.03;;
66874;SDS011;53784;52.630;4.896;2023-02-28T07:52:36;12.10;;;6.07;;
66874;SDS011;53784;52.630;4.896;2023-02-28T07:55:01;17.08;;;8.02;;
66874;SDS011;53784;52.630;4.896;2023-02-28T07:57:26;17.13;;;8.13;;
66874;SDS011;53784;52.630;4.896;2023-02-28T07:59:51;13.63;;;6.93;;
66874;SDS011;53784;52.630;4.896;2023-02-28T08:02:17;15.17;;;7.13;;
66874;SDS011;53784;52.630;4.896;2023-02-28T08:04:43;13.02;;;7.03;;
66874;SDS011;53784;52.630;4.896;2023-02-28T08:07:08;15.05;;;6.93;;
66874;SDS011;53784;52.630;4.896;2023-02-28T08:09:34;16.80;;;7.10;;
66874;SDS011;53784;52.630;4.896;2023-02-28T08:11:59;14.50;;;7.20;;
66874;SDS011;53784;52.630;4.896;2023-02-28T08:14:25;15.00;;;7.13;;
66874;SDS011;53784;52.630;4.896;2023-02-28T08:16:50;12.50;;;6.65;;
66874;SDS011;53784;52.630;4.896;2023-02-28T08:19:15;12.23;;;6.53;;
66874;SDS011;53784;52.630;4.896;2023-02-28T08:21:40;11.70;;;5.27;;
66874;SDS011;53784;52.630;4.896;2023-02-28T08:24:06;14.20;;;6.22;;
66874;SDS011;53784;52.630;4.896;2023-02-28T08:26:31;11.90;;;6.30;;
66874;SDS011;53784;52.630;4.896;2023-02-28T08:28:56;10.68;;;5.68;;
66874;SDS011;53784;52.630;4.896;2023-02-28T08:31:21;10.85;;;6.20;;
66874;SDS011;53784;52.630;4.896;2023-02-28T08:33:47;10.32;;;6.05;;
66874;SDS011;53784;52.630;4.896;2023-02-28T08:36:14;10.05;;;5.55;;
66874;SDS011;53784;52.630;4.896;2023-02-28T08:38:40;14.43;;;5.45;;
66874;SDS011;53784;52.630;4.896;2023-02-28T08:41:06;10.85;;;6.10;;
66874;SDS011;53784;52.630;4.896;2023-02-28T08:43:32;13.35;;;6.88;;
66874;SDS011;53784;52.630;4.896;2023-02-28T08:45:58;10.02;;;6.05;;
66874;SDS011;53784;52.630;4.896;2023-02-28T08:48:24;10.40;;;5.82;;
66874;SDS011;53784;52.630;4.896;2023-02-28T08:50:59;9.88;;;5.50;;
66874;SDS011;53784;52.630;4.896;2023-02-28T08:53:24;12.27;;;5.63;;
66874;SDS011;53784;52.630;4.896;2023-02-28T08:55:57;16.98;;;5.47;;
66874;SDS011;53784;52.630;4.896;2023-02-28T08:58:22;8.25;;;4.57;;
66874;SDS011;53784;52.630;4.896;2023-02-28T09:00:48;8.73;;;3.90;;
66874;SDS011;53784;52.630;4.896;2023-02-28T09:03:13;9.63;;;4.67;;
66874;SDS011;53784;52.630;4.896;2023-02-28T09:05:38;10.73;;;4.77;;
66874;SDS011;53784;52.630;4.896;2023-02-28T09:08:03;9.10;;;4.87;;
66874;SDS011;53784;52.630;4.896;2023-02-28T09:10:28;10.00;;;4.80;;
66874;SDS011;53784;52.630;4.896;2023-02-28T09:12:54;9.65;;;4.93;;
66874;SDS011;53784;52.630;4.896;2023-02-28T09:15:19;12.60;;;4.97;;
66874;SDS011;53784;52.630;4.896;2023-02-28T09:17:44;8.93;;;5.03;;
66874;SDS011;53784;52.630;4.896;2023-02-28T09:20:09;14.80;;;4.73;;
66874;SDS011;53784;52.630;4.896;2023-02-28T09:22:36;9.05;;;4.60;;
66874;SDS011;53784;52.630;4.896;2023-02-28T09:25:01;10.25;;;5.00;;
66874;SDS011;53784;52.630;4.896;2023-02-28T09:27:26;8.48;;;4.95;;
66874;SDS011;53784;52.630;4.896;2023-02-28T09:29:51;11.73;;;4.90;;
66874;SDS011;53784;52.630;4.896;2023-02-28T09:32:17;9.35;;;4.78;;
66874;SDS011;53784;52.630;4.896;2023-02-28T09:34:42;9.98;;;5.20;;
66874;SDS011;53784;52.630;4.896;2023-02-28T09:37:08;9.57;;;5.07;;
66874;SDS011;53784;52.630;4.896;2023-02-28T09:39:33;9.48;;;5.35;;
66874;SDS011;53784;52.630;4.896;2023-02-28T09:41:58;10.57;;;5.50;;
66874;SDS011;53784;52.630;4.896;2023-02-28T09:44:31;12.40;;;5.78;;
66874;SDS011;53784;52.630;4.896;2023-02-28T09:46:58;9.63;;;5.22;;
66874;SDS011;53784;52.630;4.896;2023-02-28T09:49:27;10.50;;;5.22;;
66874;SDS011;53784;52.630;4.896;2023-02-28T09:52:09;10.43;;;5.60;;
66874;SDS011;53784;52.630;4.896;2023-02-28T09:54:35;13.00;;;5.30;;
66874;SDS011;53784;52.630;4.896;2023-02-28T09:57:08;10.65;;;5.28;;
66874;SDS011;53784;52.630;4.896;2023-02-28T10:02:38;9.98;;;5.25;;
66874;SDS011;53784;52.630;4.896;2023-02-28T10:10:03;10.23;;;5.13;;
66874;SDS011;53784;52.630;4.896;2023-02-28T10:12:29;8.75;;;4.80;;
66874;SDS011;53784;52.630;4.896;2023-02-28T10:14:55;9.15;;;4.47;;
66874;SDS011;53784;52.630;4.896;2023-02-28T10:17:26;8.85;;;4.40;;
66874;SDS011;53784;52.630;4.896;2023-02-28T10:19:58;8.30;;;4.40;;
66874;SDS011;53784;52.630;4.896;2023-02-28T10:22:34;8.25;;;4.40;;
66874;SDS011;53784;52.630;4.896;2023-02-28T10:25:01;8.30;;;4.22;;
66874;SDS011;53784;52.630;4.896;2023-02-28T10:27:31;8.63;;;4.45;;
66874;SDS011;53784;52.630;4.896;2023-02-28T10:29:57;7.32;;;4.07;;
66874;SDS011;53784;52.630;4.896;2023-02-28T10:32:24;7.90;;;4.43;;
66874;SDS011;53784;52.630;4.896;2023-02-28T10:37:25;7.40;;;4.35;;
66874;SDS011;53784;52.630;4.896;2023-02-28T10:39:50;7.53;;;4.05;;
66874;SDS011;53784;52.630;4.896;2023-02-28T10:42:26;6.47;;;3.70;;
66874;SDS011;53784;52.630;4.896;2023-02-28T10:47:32;5.57;;;3.10;;
66874;SDS011;53784;52.630;4.896;2023-02-28T10:49:58;6.88;;;3.15;;
66874;SDS011;53784;52.630;4.896;2023-02-28T10:52:37;5.03;;;2.78;;
66874;SDS011;53784;52.630;4.896;2023-02-28T10:55:18;6.38;;;2.97;;
66874;SDS011;53784;52.630;4.896;2023-02-28T10:57:44;5.25;;;2.75;;
66874;SDS011;53784;52.630;4.896;2023-02-28T11:00:32;5.80;;;2.83;;
66874;SDS011;53784;52.630;4.896;2023-02-28T11:02:58;4.47;;;2.60;;
66874;SDS011;53784;52.630;4.896;2023-02-28T11:05:30;4.47;;;2.43;;
66874;SDS011;53784;52.630;4.896;2023-02-28T11:08:06;5.38;;;2.72;;
66874;SDS011;53784;52.630;4.896;2023-02-28T11:10:36;5.28;;;2.88;;
66874;SDS011;53784;52.630;4.896;2023-02-28T11:13:01;7.50;;;2.95;;
66874;SDS011;53784;52.630;4.896;2023-02-28T11:15:28;5.85;;;2.78;;
66874;SDS011;53784;52.630;4.896;2023-02-28T11:20:23;5.65;;;3.47;;
66874;SDS011;53784;52.630;4.896;2023-02-28T11:22:48;5.75;;;3.22;;
66874;SDS011;53784;52.630;4.896;2023-02-28T11:25:22;6.13;;;3.28;;
66874;SDS011;53784;52.630;4.896;2023-02-28T11:27:49;6.43;;;3.60;;
66874;SDS011;53784;52.630;4.896;2023-02-28T11:32:59;5.90;;;3.17;;
66874;SDS011;53784;52.630;4.896;2023-02-28T11:35:36;6.00;;;3.50;;
66874;SDS011;53784;52.630;4.896;2023-02-28T11:38:01;7.40;;;3.40;;
66874;SDS011;53784;52.630;4.896;2023-02-28T11:40:31;5.40;;;3.10;;
66874;SDS011;53784;52.630;4.896;2023-02-28T11:48:10;4.68;;;2.60;;
66874;SDS011;53784;52.630;4.896;2023-02-28T11:56:02;5.18;;;2.25;;
66874;SDS011;53784;52.630;4.896;2023-02-28T11:58:31;5.80;;;2.70;;
66874;SDS011;53784;52.630;4.896;2023-02-28T12:11:22;4.60;;;2.28;;
66874;SDS011;53784;52.630;4.896;2023-02-28T12:16:28;5.07;;;2.50;;
66874;SDS011;53784;52.630;4.896;2023-02-28T12:21:50;5.13;;;2.30;;
66874;SDS011;53784;52.630;4.896;2023-02-28T12:24:25;4.10;;;2.03;;
66874;SDS011;53784;52.630;4.896;2023-02-28T12:26:54;5.35;;;2.53;;
66874;SDS011;53784;52.630;4.896;2023-02-28T12:31:47;4.57;;;2.28;;
66874;SDS011;53784;52.630;4.896;2023-02-28T12:34:16;4.13;;;2.15;;
66874;SDS011;53784;52.630;4.896;2023-02-28T12:36:43;4.72;;;2.50;;
66874;SDS011;53784;52.630;4.896;2023-02-28T12:39:14;3.70;;;2.25;;
66874;SDS011;53784;52.630;4.896;2023-02-28T12:41:51;4.63;;;2.22;;
66874;SDS011;53784;52.630;4.896;2023-02-28T12:44:20;3.80;;;2.25;;
66874;SDS011;53784;52.630;4.896;2023-02-28T12:46:54;3.70;;;2.13;;
66874;SDS011;53784;52.630;4.896;2023-02-28T12:49:33;3.80;;;2.10;;
66874;SDS011;53784;52.630;4.896;2023-02-28T12:51:59;3.67;;;1.85;;
66874;SDS011;53784;52.630;4.896;2023-02-28T12:56:54;5.85;;;1.83;;
66874;SDS011;53784;52.630;4.896;2023-02-28T12:59:27;7.38;;;4.25;;
66874;SDS011;53784;52.630;4.896;2023-02-28T13:09:37;5.15;;;2.40;;
66874;SDS011;53784;52.630;4.896;2023-02-28T13:12:11;3.42;;;1.75;;
66874;SDS011;53784;52.630;4.896;2023-02-28T13:14:37;3.40;;;1.60;;
66874;SDS011;53784;52.630;4.896;2023-02-28T13:19:41;3.20;;;1.48;;
66874;SDS011;53784;52.630;4.896;2023-02-28T13:24:51;3.65;;;1.48;;
66874;SDS011;53784;52.630;4.896;2023-02-28T13:29:49;3.45;;;1.65;;
66874;SDS011;53784;52.630;4.896;2023-02-28T13:40:26;3.88;;;1.60;;
66874;SDS011;53784;52.630;4.896;2023-02-28T13:42:51;4.68;;;2.30;;
66874;SDS011;53784;52.630;4.896;2023-02-28T13:45:24;3.20;;;1.50;;
66874;SDS011;53784;52.630;4.896;2023-02-28T13:47:54;3.65;;;1.80;;
66874;SDS011;53784;52.630;4.896;2023-02-28T14:01:00;3.38;;;1.90;;
66874;SDS011;53784;52.630;4.896;2023-02-28T14:06:17;6.22;;;2.42;;
66874;SDS011;53784;52.630;4.896;2023-02-28T14:08:45;5.05;;;2.92;;
66874;SDS011;53784;52.630;4.896;2023-02-28T14:11:23;4.68;;;2.20;;
66874;SDS011;53784;52.630;4.896;2023-02-28T14:13:49;4.88;;;2.10;;
66874;SDS011;53784;52.630;4.896;2023-02-28T14:16:24;4.80;;;2.50;;
66874;SDS011;53784;52.630;4.896;2023-02-28T14:21:21;3.67;;;2.05;;
66874;SDS011;53784;52.630;4.896;2023-02-28T14:26:45;5.93;;;2.95;;
66874;SDS011;53784;52.630;4.896;2023-02-28T14:31:48;5.07;;;2.47;;
66874;SDS011;53784;52.630;4.896;2023-02-28T14:34:39;9.80;;;3.50;;
66874;SDS011;53784;52.630;4.896;2023-02-28T14:37:02;4.78;;;2.40;;
66874;SDS011;53784;52.630;4.896;2023-02-28T14:39:28;4.57;;;2.20;;
66874;SDS011;53784;52.630;4.896;2023-02-28T14:41:56;4.57;;;2.50;;
66874;SDS011;53784;52.630;4.896;2023-02-28T14:44:24;8.40;;;3.83;;
66874;SDS011;53784;52.630;4.896;2023-02-28T14:46:53;7.10;;;3.58;;
66874;SDS011;53784;52.630;4.896;2023-02-28T14:51:44;5.43;;;2.47;;
66874;SDS011;53784;52.630;4.896;2023-02-28T14:54:13;4.90;;;2.63;;
66874;SDS011;53784;52.630;4.896;2023-02-28T14:56:39;5.05;;;2.50;;
66874;SDS011;53784;52.630;4.896;2023-02-28T14:59:05;4.90;;;2.88;;
66874;SDS011;53784;52.630;4.896;2023-02-28T15:01:31;5.38;;;2.65;;
66874;SDS011;53784;52.630;4.896;2023-02-28T15:04:02;6.93;;;3.60;;
66874;SDS011;53784;52.630;4.896;2023-02-28T15:06:28;5.38;;;2.55;;
66874;SDS011;53784;52.630;4.896;2023-02-28T15:11:51;5.65;;;2.70;;
66874;SDS011;53784;52.630;4.896;2023-02-28T15:14:17;4.83;;;2.50;;
66874;SDS011;53784;52.630;4.896;2023-02-28T15:16:44;5.35;;;3.08;;
66874;SDS011;53784;52.630;4.896;2023-02-28T15:19:16;7.72;;;4.70;;
66874;SDS011;53784;52.630;4.896;2023-02-28T15:21:44;7.38;;;3.08;;
66874;SDS011;53784;52.630;4.896;2023-02-28T15:24:18;6.47;;;3.42;;
66874;SDS011;53784;52.630;4.896;2023-02-28T15:26:56;5.03;;;2.55;;
66874;SDS011;53784;52.630;4.896;2023-02-28T15:29:23;5.28;;;2.45;;
66874;SDS011;53784;52.630;4.896;2023-02-28T15:31:49;4.88;;;2.72;;
66874;SDS011;53784;52.630;4.896;2023-02-28T15:34:19;4.38;;;2.60;;
66874;SDS011;53784;52.630;4.896;2023-02-28T15:36:45;5.45;;;2.50;;
66874;SDS011;53784;52.630;4.896;2023-02-28T15:39:44;5.68;;;2.97;;
66874;SDS011;53784;52.630;4.896;2023-02-28T15:42:12;4.60;;;2.58;;
66874;SDS011;53784;52.630;4.896;2023-02-28T15:44:37;4.25;;;2.65;;
66874;SDS011;53784;52.630;4.896;2023-02-28T15:47:04;5.28;;;2.80;;
66874;SDS011;53784;52.630;4.896;2023-02-28T15:49:32;8.27;;;3.50;;
66874;SDS011;53784;52.630;4.896;2023-02-28T15:52:00;6.07;;;3.47;;
66874;SDS011;53784;52.630;4.896;2023-02-28T15:54:30;6.32;;;3.63;;
66874;SDS011;53784;52.630;4.896;2023-02-28T15:56:57;6.95;;;3.83;;
66874;SDS011;53784;52.630;4.896;2023-02-28T15:59:25;7.72;;;3.90;;
66874;SDS011;53784;52.630;4.896;2023-02-28T16:04:34;6.13;;;2.92;;
66874;SDS011;53784;52.630;4.896;2023-02-28T16:07:01;5.15;;;3.00;;
66874;SDS011;53784;52.630;4.896;2023-02-28T16:09:26;5.75;;;3.40;;
66874;SDS011;53784;52.630;4.896;2023-02-28T16:11:56;5.95;;;3.60;;
66874;SDS011;53784;52.630;4.896;2023-02-28T16:14:25;4.78;;;3.00;;
66874;SDS011;53784;52.630;4.896;2023-02-28T16:16:53;5.88;;;3.33;;
66874;SDS011;53784;52.630;4.896;2023-02-28T16:19:19;5.57;;;3.20;;
66874;SDS011;53784;52.630;4.896;2023-02-28T16:21:44;5.93;;;3.00;;
66874;SDS011;53784;52.630;4.896;2023-02-28T16:24:10;6.13;;;3.33;;
66874;SDS011;53784;52.630;4.896;2023-02-28T16:26:35;7.85;;;3.97;;
66874;SDS011;53784;52.630;4.896;2023-02-28T16:29:02;11.52;;;5.55;;
66874;SDS011;53784;52.630;4.896;2023-02-28T16:31:28;9.70;;;5.72;;
66874;SDS011;53784;52.630;4.896;2023-02-28T16:33:53;15.23;;;9.48;;
66874;SDS011;53784;52.630;4.896;2023-02-28T16:36:20;21.38;;;12.82;;
66874;SDS011;53784;52.630;4.896;2023-02-28T16:38:45;20.10;;;11.57;;
66874;SDS011;53784;52.630;4.896;2023-02-28T16:41:21;15.32;;;9.43;;
66874;SDS011;53784;52.630;4.896;2023-02-28T16:43:47;8.38;;;5.35;;
66874;SDS011;53784;52.630;4.896;2023-02-28T16:46:13;9.55;;;6.18;;
66874;SDS011;53784;52.630;4.896;2023-02-28T16:48:39;8.82;;;5.10;;
66874;SDS011;53784;52.630;4.896;2023-02-28T16:51:06;8.40;;;4.90;;
66874;SDS011;53784;52.630;4.896;2023-02-28T16:53:31;9.70;;;4.75;;
66874;SDS011;53784;52.630;4.896;2023-02-28T16:55:56;10.45;;;6.93;;
66874;SDS011;53784;52.630;4.896;2023-02-28T17:07:25;9.75;;;4.88;;
66874;SDS011;53784;52.630;4.896;2023-02-28T17:09:50;8.90;;;4.65;;